createdAt,value
2022-11-26T00:00:50.794Z,101392.48
2022-11-26T00:03:34.880Z,101384.38
2022-11-26T00:06:17.024Z,101389.02
2022-11-26T00:08:49.712Z,101381.46
2022-11-26T00:11:22.378Z,101385.83
2022-11-26T00:13:54.977Z,101382.93
2022-11-26T00:16:27.989Z,101388.02
2022-11-26T00:19:00.711Z,101386.05
2022-11-26T00:21:35.048Z,101387.06
2022-11-26T00:24:13.353Z,101387.31
2022-11-26T00:26:45.876Z,101389.64
2022-11-26T00:29:18.403Z,101389.23
2022-11-26T00:31:51.057Z,101390.59
2022-11-26T00:34:23.611Z,101386.45
2022-11-26T00:36:56.230Z,101387.01
2022-11-26T00:39:28.878Z,101384.89
2022-11-26T00:42:01.505Z,101385.88
2022-11-26T00:44:34.957Z,101382.66
2022-11-26T00:47:07.782Z,101381.16
2022-11-26T00:49:40.417Z,101384.08
2022-11-26T00:52:34.985Z,101385.27
2022-11-26T00:55:12.287Z,101387.75
2022-11-26T00:57:45.117Z,101390.63
2022-11-26T01:00:20.993Z,101383.64
2022-11-26T01:02:54.249Z,101382.65
2022-11-26T01:05:30.671Z,101387.48
2022-11-26T01:08:19.665Z,101390.73
2022-11-26T01:10:52.201Z,101394.14
2022-11-26T01:13:24.812Z,101403.81
2022-11-26T01:15:59.773Z,101405.36
2022-11-26T01:18:37.067Z,101407.88
2022-11-26T01:21:12.606Z,101410.90
2022-11-26T01:23:45.552Z,101410.38
2022-11-26T01:26:20.645Z,101408.14
2022-11-26T01:28:53.337Z,101410.96
2022-11-26T01:31:27.971Z,101414.23
2022-11-26T01:34:00.456Z,101412.71
2022-11-26T01:36:37.093Z,101417.31
2022-11-26T01:39:15.310Z,101413.33
2022-11-26T01:41:53.423Z,101420.23
2022-11-26T01:44:28.541Z,101422.05
2022-11-26T01:47:02.753Z,101421.92
2022-11-26T01:49:36.248Z,101423.11
2022-11-26T01:52:14.471Z,101424.11
2022-11-26T01:54:48.231Z,101427.04
2022-11-26T01:57:26.681Z,101418.02
2022-11-26T02:00:02.568Z,101425.25
2022-11-26T02:02:35.148Z,101434.66
2022-11-26T02:05:13.774Z,101433.51
2022-11-26T02:07:46.604Z,101429.43
2022-11-26T02:10:18.917Z,101435.74
2022-11-26T02:12:52.484Z,101436.30
2022-11-26T02:15:29.120Z,101440.41
2022-11-26T02:18:06.496Z,101442.20
2022-11-26T02:20:49.565Z,101442.79
2022-11-26T02:23:46.748Z,101442.40
2022-11-26T02:26:45.928Z,101440.46
2022-11-26T02:29:25.074Z,101445.77
2022-11-26T02:32:01.859Z,101447.93
2022-11-26T02:34:40.976Z,101448.18
2022-11-26T02:37:17.951Z,101442.17
2022-11-26T02:39:50.741Z,101438.73
2022-11-26T02:42:27.876Z,101436.04
2022-11-26T02:45:05.007Z,101434.32
2022-11-26T02:47:39.729Z,101440.30
2022-11-26T02:50:18.659Z,101436.48
2022-11-26T02:52:54.501Z,101435.96
2022-11-26T02:55:31.246Z,101434.96
2022-11-26T02:58:04.464Z,101441.63
2022-11-26T03:00:41.049Z,101438.96
2022-11-26T03:03:23.199Z,101437.47
2022-11-26T03:05:59.049Z,101436.97
2022-11-26T03:08:32.384Z,101440.52
2022-11-26T03:11:05.040Z,101438.73
2022-11-26T03:13:37.561Z,101442.63
2022-11-26T03:16:10.669Z,101443.33
2022-11-26T03:18:43.189Z,101442.41
2022-11-26T03:21:15.977Z,101443.43
2022-11-26T03:23:48.522Z,101444.80
2022-11-26T03:26:21.101Z,101450.33
2022-11-26T03:28:54.084Z,101452.16
2022-11-26T03:31:26.641Z,101453.78
2022-11-26T03:33:59.084Z,101455.08
2022-11-26T03:36:31.685Z,101460.00
2022-11-26T03:39:04.646Z,101461.19
2022-11-26T03:41:37.147Z,101465.63
2022-11-26T03:44:09.660Z,101470.25
2022-11-26T03:46:42.289Z,101476.89
2022-11-26T03:49:14.789Z,101480.27
2022-11-26T03:51:47.301Z,101489.40
2022-11-26T03:54:19.813Z,101495.48
2022-11-26T03:56:52.289Z,101501.54
2022-11-26T03:59:24.777Z,101507.17
2022-11-26T04:01:57.343Z,101512.89
2022-11-26T04:04:30.035Z,101517.83
2022-11-26T04:07:02.758Z,101521.72
2022-11-26T04:09:35.291Z,101521.41
2022-11-26T04:12:08.112Z,101527.25
2022-11-26T04:14:40.983Z,101532.59
2022-11-26T04:17:13.736Z,101532.13
2022-11-26T04:19:46.169Z,101529.66
2022-11-26T04:22:18.694Z,101532.54
2022-11-26T04:24:51.205Z,101535.40
2022-11-26T04:27:23.694Z,101534.95
2022-11-26T04:29:56.196Z,101533.30
2022-11-26T04:32:28.761Z,101537.52
2022-11-26T04:35:01.369Z,101537.08
2022-11-26T04:37:33.845Z,101541.39
2022-11-26T04:40:07.795Z,101542.36
2022-11-26T04:42:40.296Z,101544.86
2022-11-26T04:45:14.404Z,101549.58
2022-11-26T04:47:46.873Z,101556.13
2022-11-26T04:50:19.484Z,101557.08
2022-11-26T04:52:52.124Z,101561.68
2022-11-26T04:55:24.716Z,101567.84
2022-11-26T04:57:57.208Z,101575.66
2022-11-26T05:00:29.873Z,101580.34
2022-11-26T05:03:02.419Z,101590.42
2022-11-26T05:05:35.057Z,101596.48
2022-11-26T05:08:08.135Z,101592.08
2022-11-26T05:10:40.657Z,101596.59
2022-11-26T05:13:13.181Z,101596.54
2022-11-26T05:15:45.613Z,101595.71
2022-11-26T05:18:18.542Z,101600.95
2022-11-26T05:20:51.055Z,101603.15
2022-11-26T05:23:23.533Z,101608.30
2022-11-26T05:25:56.082Z,101609.73
2022-11-26T05:28:28.768Z,101616.15
2022-11-26T05:31:05.737Z,101621.12
2022-11-26T05:33:38.269Z,101627.77
2022-11-26T05:36:11.414Z,101634.34
2022-11-26T05:38:43.965Z,101640.04
2022-11-26T05:41:16.466Z,101645.05
2022-11-26T05:43:48.941Z,101647.72
2022-11-26T05:46:22.520Z,101648.74
2022-11-26T05:48:55.073Z,101650.62
2022-11-26T05:51:27.545Z,101651.73
2022-11-26T05:54:00.099Z,101658.25
2022-11-26T05:56:32.703Z,101668.23
2022-11-26T05:59:05.167Z,101669.81
2022-11-26T06:01:37.821Z,101674.93
2022-11-26T06:04:10.315Z,101675.86
2022-11-26T06:06:42.797Z,101680.01
2022-11-26T06:09:15.433Z,101677.58
2022-11-26T06:11:49.806Z,101675.89
2022-11-26T06:14:22.308Z,101679.20
2022-11-26T06:16:54.873Z,101682.17
2022-11-26T06:19:27.569Z,101689.21
2022-11-26T06:22:00.145Z,101690.79
2022-11-26T06:24:32.668Z,101696.08
2022-11-26T06:27:05.343Z,101695.83
2022-11-26T06:29:37.881Z,101693.06
2022-11-26T06:32:10.470Z,101695.38
2022-11-26T06:34:44.236Z,101698.20
2022-11-26T06:37:17.178Z,101691.88
2022-11-26T06:39:49.679Z,101693.82
2022-11-26T06:42:22.216Z,101693.98
2022-11-26T06:44:59.467Z,101689.06
2022-11-26T06:47:32.362Z,101699.98
2022-11-26T06:50:10.571Z,101698.59
2022-11-26T06:52:43.427Z,101701.59
2022-11-26T06:55:15.949Z,101705.17
2022-11-26T06:57:50.146Z,101709.35
2022-11-26T07:00:23.763Z,101708.95
2022-11-26T07:02:56.333Z,101706.05
2022-11-26T07:05:28.963Z,101709.36
2022-11-26T07:08:01.473Z,101711.08
2022-11-26T07:10:33.956Z,101718.45
2022-11-26T07:13:06.465Z,101722.66
2022-11-26T07:15:39.031Z,101723.51
2022-11-26T07:18:11.538Z,101729.67
2022-11-26T07:20:44.213Z,101731.34
2022-11-26T07:23:16.697Z,101732.70
2022-11-26T07:25:49.188Z,101730.55
2022-11-26T07:28:21.765Z,101729.15
2022-11-26T07:30:54.289Z,101730.58
2022-11-26T07:33:26.941Z,101724.14
2022-11-26T07:36:02.185Z,101722.92
2022-11-26T07:38:35.986Z,101727.98
2022-11-26T07:41:10.377Z,101734.80
2022-11-26T07:43:44.480Z,101741.71
2022-11-26T07:46:19.155Z,101742.77
2022-11-26T07:48:52.545Z,101750.27
2022-11-26T07:51:26.951Z,101753.43
2022-11-26T07:54:01.218Z,101757.45
2022-11-26T07:56:33.777Z,101755.17
2022-11-26T07:59:06.711Z,101751.43
2022-11-26T08:01:39.625Z,101752.96
2022-11-26T08:04:12.135Z,101756.16
2022-11-26T08:06:44.648Z,101755.36
2022-11-26T08:09:17.740Z,101755.14
2022-11-26T08:11:50.352Z,101755.38
2022-11-26T08:14:23.188Z,101763.50
2022-11-26T08:16:55.808Z,101762.54
2022-11-26T08:19:28.681Z,101761.98
2022-11-26T08:22:03.385Z,101766.05
2022-11-26T08:24:36.307Z,101771.18
2022-11-26T08:27:09.196Z,101772.70
2022-11-26T08:29:41.872Z,101774.96
2022-11-26T08:32:14.541Z,101779.44
2022-11-26T08:34:47.132Z,101777.13
2022-11-26T08:37:19.661Z,101773.31
2022-11-26T08:39:52.232Z,101766.93
2022-11-26T08:42:24.867Z,101771.92
2022-11-26T08:44:57.366Z,101767.07
2022-11-26T08:47:29.900Z,101770.95
2022-11-26T08:50:02.578Z,101766.67
2022-11-26T08:52:35.155Z,101768.98
2022-11-26T08:55:08.448Z,101769.95
2022-11-26T08:57:40.909Z,101764.33
2022-11-26T09:00:15.617Z,101757.45
2022-11-26T09:02:48.182Z,101754.19
2022-11-26T09:05:20.730Z,101755.54
2022-11-26T09:07:53.516Z,101755.92
2022-11-26T09:10:26.122Z,101752.67
2022-11-26T09:12:58.704Z,101750.47
2022-11-26T09:15:31.283Z,101747.80
2022-11-26T09:18:04.249Z,101742.45
2022-11-26T09:20:36.717Z,101745.00
2022-11-26T09:23:09.246Z,101741.02
2022-11-26T09:25:42.356Z,101734.89
2022-11-26T09:28:15.401Z,101737.16
2022-11-26T09:30:47.877Z,101735.58
2022-11-26T09:33:20.382Z,101734.98
2022-11-26T09:35:52.881Z,101736.64
2022-11-26T09:38:25.518Z,101735.27
2022-11-26T09:41:02.430Z,101735.51
2022-11-26T09:43:53.244Z,101737.38
2022-11-26T09:46:41.193Z,101734.76
2022-11-26T09:49:30.037Z,101732.86
2022-11-26T09:52:04.973Z,101723.38
2022-11-26T09:54:39.655Z,101723.65
2022-11-26T09:57:23.192Z,101727.20
2022-11-26T09:59:57.453Z,101727.77
2022-11-26T10:02:30.251Z,101727.66
2022-11-26T10:05:04.440Z,101727.08
2022-11-26T10:07:56.092Z,101729.69
2022-11-26T10:10:37.239Z,101727.29
2022-11-26T10:13:20.849Z,101724.80
2022-11-26T10:16:05.572Z,101721.09
2022-11-26T10:18:47.947Z,101728.75
2022-11-26T10:21:37.806Z,101726.44
2022-11-26T10:24:26.917Z,101726.89
2022-11-26T10:27:03.011Z,101736.20
2022-11-26T10:29:42.706Z,101733.76
2022-11-26T10:32:26.453Z,101729.63
2022-11-26T10:35:00.103Z,101734.35
2022-11-26T10:37:33.126Z,101732.11
2022-11-26T10:40:19.990Z,101734.00
2022-11-26T10:43:02.721Z,101733.41
2022-11-26T10:45:41.692Z,101739.97
2022-11-26T10:48:25.011Z,101742.30
2022-11-26T10:51:09.373Z,101740.22
2022-11-26T10:53:55.965Z,101740.02
2022-11-26T10:56:37.832Z,101742.71
2022-11-26T10:59:25.231Z,101739.25
2022-11-26T11:02:03.101Z,101741.62
2022-11-26T11:04:40.707Z,101743.70
2022-11-26T11:07:33.167Z,101744.48
2022-11-26T11:10:16.757Z,101747.09
2022-11-26T11:12:52.167Z,101751.36
2022-11-26T11:15:28.681Z,101748.79
2022-11-26T11:18:04.521Z,101747.23
2022-11-26T11:20:40.604Z,101743.34
2022-11-26T11:23:45.705Z,101749.92
2022-11-26T11:26:23.976Z,101745.14
2022-11-26T11:28:58.397Z,101743.21
2022-11-26T11:31:46.230Z,101741.71
2022-11-26T11:34:25.684Z,101735.35
2022-11-26T11:37:08.693Z,101731.30
2022-11-26T11:39:46.502Z,101730.05
2022-11-26T11:42:28.522Z,101732.54
2022-11-26T11:45:05.392Z,101725.38
2022-11-26T11:47:44.252Z,101725.17
2022-11-26T11:50:24.290Z,101730.31
2022-11-26T11:53:09.057Z,101734.80
2022-11-26T11:56:02.078Z,101731.40
2022-11-26T11:59:02.448Z,101727.77
2022-11-26T12:01:48.947Z,101726.48
2022-11-26T12:04:37.004Z,101722.20
2022-11-26T12:07:41.511Z,101723.30
2022-11-26T12:10:24.321Z,101724.05
2022-11-26T12:13:01.733Z,101725.35
2022-11-26T12:15:43.107Z,101723.64
2022-11-26T12:18:24.500Z,101723.30
2022-11-26T12:21:01.772Z,101723.97
2022-11-26T12:23:39.717Z,101721.67
2022-11-26T12:26:19.085Z,101724.70
2022-11-26T12:29:08.086Z,101723.04
2022-11-26T12:31:46.916Z,101723.30
2022-11-26T12:34:25.528Z,101724.95
2022-11-26T12:37:03.257Z,101727.31
2022-11-26T12:39:53.918Z,101722.89
2022-11-26T12:42:31.744Z,101720.65
2022-11-26T12:45:17.707Z,101722.77
2022-11-26T12:47:56.691Z,101726.36
2022-11-26T12:50:40.531Z,101727.57
2022-11-26T12:53:26.588Z,101729.74
2022-11-26T12:56:06.472Z,101722.81
2022-11-26T12:58:54.054Z,101719.64
2022-11-26T13:01:27.609Z,101720.92
2022-11-26T13:04:36.219Z,101726.95
2022-11-26T13:07:09.000Z,101725.67
2022-11-26T13:10:03.108Z,101728.36
2022-11-26T13:12:49.449Z,101733.45
2022-11-26T13:15:27.800Z,101736.69
2022-11-26T13:18:05.418Z,101735.69
2022-11-26T13:20:52.065Z,101738.32
2022-11-26T13:23:35.306Z,101737.25
2022-11-26T13:26:24.949Z,101741.98
2022-11-26T13:29:21.241Z,101739.16
2022-11-26T13:32:16.596Z,101739.44
2022-11-26T13:35:06.801Z,101743.52
2022-11-26T13:37:56.378Z,101752.52
2022-11-26T13:40:58.881Z,101754.22
2022-11-26T13:44:14.244Z,101759.40
2022-11-26T13:46:52.589Z,101760.65
2022-11-26T13:49:33.041Z,101761.05
2022-11-26T13:52:11.493Z,101761.27
2022-11-26T13:54:48.620Z,101766.36
2022-11-26T13:57:25.745Z,101768.95
2022-11-26T14:00:00.156Z,101770.55
2022-11-26T14:02:44.908Z,101775.11
2022-11-26T14:05:19.228Z,101775.53
2022-11-26T14:07:53.354Z,101777.49
2022-11-26T14:10:45.136Z,101778.04
2022-11-26T14:13:18.457Z,101788.95
2022-11-26T14:16:00.570Z,101786.19
2022-11-26T14:19:01.929Z,101782.11
2022-11-26T14:21:54.548Z,101788.97
2022-11-26T14:24:56.343Z,101793.92
2022-11-26T14:27:32.703Z,101794.15
2022-11-26T14:30:33.169Z,101798.13
2022-11-26T14:33:15.336Z,101806.67
2022-11-26T14:35:58.746Z,101813.93
2022-11-26T14:38:35.524Z,101822.59
2022-11-26T14:41:08.196Z,101826.14
2022-11-26T14:43:40.757Z,101824.93
2022-11-26T14:46:19.058Z,101833.44
2022-11-26T14:48:59.609Z,101835.79
2022-11-26T14:51:33.581Z,101834.33
2022-11-26T14:54:08.676Z,101838.83
2022-11-26T14:56:46.371Z,101834.34
2022-11-26T14:59:20.496Z,101841.48
2022-11-26T15:01:54.203Z,101844.99
2022-11-26T15:04:29.029Z,101847.67
2022-11-26T15:07:02.120Z,101845.54
2022-11-26T15:09:35.388Z,101844.33
2022-11-26T15:12:16.192Z,101849.80
2022-11-26T15:14:54.745Z,101849.02
2022-11-26T15:17:30.704Z,101849.20
2022-11-26T15:20:10.109Z,101854.65
2022-11-26T15:22:49.474Z,101860.52
2022-11-26T15:25:25.330Z,101859.64
2022-11-26T15:28:01.494Z,101865.78
2022-11-26T15:30:36.924Z,101869.00
2022-11-26T15:33:15.830Z,101872.17
2022-11-26T15:35:50.613Z,101865.30
2022-11-26T15:38:25.396Z,101864.25
2022-11-26T15:41:04.890Z,101866.98
2022-11-26T15:43:43.873Z,101868.18
2022-11-26T15:46:20.067Z,101871.52
2022-11-26T15:48:55.937Z,101870.58
2022-11-26T15:51:36.055Z,101873.13
2022-11-26T15:54:21.804Z,101873.64
2022-11-26T15:56:57.166Z,101872.30
2022-11-26T15:59:34.453Z,101871.35
2022-11-26T16:02:18.864Z,101871.66
2022-11-26T16:04:54.614Z,101871.45
2022-11-26T16:07:30.644Z,101873.11
2022-11-26T16:10:35.722Z,101877.48
2022-11-26T16:13:28.479Z,101878.66
2022-11-26T16:16:06.937Z,101880.34
2022-11-26T16:18:45.503Z,101877.84
2022-11-26T16:21:24.394Z,101873.09
2022-11-26T16:24:02.034Z,101878.53
2022-11-26T16:26:52.985Z,101880.92
2022-11-26T16:29:26.344Z,101881.13
2022-11-26T16:31:59.290Z,101882.94
2022-11-26T16:34:31.972Z,101884.70
2022-11-26T16:37:19.545Z,101882.37
2022-11-26T16:39:53.617Z,101883.67
2022-11-26T16:42:26.830Z,101882.94
2022-11-26T16:45:03.965Z,101888.06
2022-11-26T16:47:41.304Z,101892.56
2022-11-26T16:50:20.377Z,101886.69
2022-11-26T16:52:53.318Z,101889.70
2022-11-26T16:55:28.406Z,101892.55
2022-11-26T16:58:02.661Z,101893.73
2022-11-26T17:00:37.037Z,101892.90
2022-11-26T17:03:13.084Z,101893.24
2022-11-26T17:05:47.188Z,101895.14
2022-11-26T17:08:19.795Z,101901.88
2022-11-26T17:10:52.501Z,101908.93
2022-11-26T17:13:25.755Z,101909.64
2022-11-26T17:15:59.309Z,101903.02
2022-11-26T17:18:33.196Z,101901.88
2022-11-26T17:21:06.488Z,101904.37
2022-11-26T17:23:40.427Z,101906.40
2022-11-26T17:26:20.878Z,101907.76
2022-11-26T17:28:53.772Z,101911.06
2022-11-26T17:31:26.996Z,101903.75
2022-11-26T17:33:59.869Z,101911.17
2022-11-26T17:36:36.952Z,101913.77
2022-11-26T17:39:12.934Z,101918.83
2022-11-26T17:41:45.496Z,101917.54
2022-11-26T17:44:18.624Z,101918.03
2022-11-26T17:47:15.959Z,101922.41
2022-11-26T17:49:43.884Z,101925.58
2022-11-26T17:52:16.733Z,101921.45
2022-11-26T17:54:49.373Z,101928.33
2022-11-26T17:57:22.981Z,101915.59
2022-11-26T17:59:56.141Z,101917.03
2022-11-26T18:02:28.814Z,101915.70
2022-11-26T18:05:01.341Z,101919.16
2022-11-26T18:07:34.037Z,101919.59
2022-11-26T18:10:09.507Z,101920.55
2022-11-26T18:12:43.272Z,101924.15
2022-11-26T18:15:24.132Z,101924.71
2022-11-26T18:17:58.281Z,101930.30
2022-11-26T18:20:32.051Z,101931.34
2022-11-26T18:23:04.744Z,101928.21
2022-11-26T18:25:37.339Z,101929.61
2022-11-26T18:28:09.918Z,101930.45
2022-11-26T18:30:43.072Z,101933.37
2022-11-26T18:33:17.150Z,101931.81
2022-11-26T18:35:53.443Z,101936.02
2022-11-26T18:38:29.132Z,101939.39
2022-11-26T18:41:06.637Z,101936.20
2022-11-26T18:43:40.642Z,101935.54
2022-11-26T18:46:16.965Z,101942.34
2022-11-26T18:48:51.190Z,101941.39
2022-11-26T18:51:24.416Z,101940.45
2022-11-26T18:53:56.951Z,101941.16
2022-11-26T18:56:29.648Z,101940.38
2022-11-26T18:59:02.480Z,101942.36
2022-11-26T19:01:35.678Z,101940.90
2022-11-26T19:04:08.351Z,101942.58
2022-11-26T19:06:42.034Z,101944.46
2022-11-26T19:09:19.263Z,101948.55
2022-11-26T19:11:54.272Z,101953.27
2022-11-26T19:14:28.630Z,101953.72
2022-11-26T19:17:04.383Z,101959.40
2022-11-26T19:19:38.725Z,101964.57
2022-11-26T19:22:11.789Z,101969.48
2022-11-26T19:24:44.572Z,101966.95
2022-11-26T19:27:17.353Z,101971.45
2022-11-26T19:29:50.093Z,101971.80
2022-11-26T19:32:22.808Z,101975.20
2022-11-26T19:34:55.435Z,101971.70
2022-11-26T19:37:28.003Z,101968.55
2022-11-26T19:40:00.712Z,101971.30
2022-11-26T19:42:34.845Z,101970.91
2022-11-26T19:45:08.434Z,101973.63
2022-11-26T19:47:41.176Z,101978.20
2022-11-26T19:50:14.358Z,101976.02
2022-11-26T19:52:48.467Z,101977.65
2022-11-26T19:55:23.097Z,101981.67
2022-11-26T19:57:55.706Z,101982.20
2022-11-26T20:00:28.380Z,101980.62
2022-11-26T20:03:01.516Z,101984.41
2022-11-26T20:05:34.375Z,101980.09
2022-11-26T20:08:08.261Z,101982.55
2022-11-26T20:10:43.568Z,101983.48
2022-11-26T20:13:18.427Z,101983.23
2022-11-26T20:15:50.884Z,101984.64
2022-11-26T20:18:23.484Z,101983.15
2022-11-26T20:21:03.180Z,101984.06
2022-11-26T20:23:35.781Z,101986.04
2022-11-26T20:26:17.824Z,101987.56
2022-11-26T20:28:51.113Z,101989.17
2022-11-26T20:31:24.770Z,101990.95
2022-11-26T20:33:58.053Z,101992.29
2022-11-26T20:36:30.748Z,101992.62
2022-11-26T20:39:04.364Z,101990.85
2022-11-26T20:41:37.302Z,101993.87
2022-11-26T20:44:10.463Z,101991.39
2022-11-26T20:46:43.434Z,101998.77
2022-11-26T20:49:16.316Z,101991.19
2022-11-26T20:51:49.909Z,101986.48
2022-11-26T20:54:22.574Z,101985.42
2022-11-26T20:56:55.049Z,101987.70
2022-11-26T20:59:28.186Z,101983.95
2022-11-26T21:02:02.245Z,101988.17
2022-11-26T21:04:35.088Z,101988.55
2022-11-26T21:07:07.841Z,101992.24
2022-11-26T21:09:41.163Z,101990.42
2022-11-26T21:12:13.889Z,101990.56
2022-11-26T21:14:46.780Z,101993.04
2022-11-26T21:17:19.795Z,101994.39
2022-11-26T21:19:52.695Z,101996.89
2022-11-26T21:22:25.896Z,101999.96
2022-11-26T21:24:59.199Z,101999.13
2022-11-26T21:27:34.062Z,101999.50
2022-11-26T21:30:11.472Z,101997.19
2022-11-26T21:32:45.135Z,101999.44
2022-11-26T21:35:18.471Z,101996.16
2022-11-26T21:37:51.800Z,101994.90
2022-11-26T21:40:24.895Z,101997.37
2022-11-26T21:42:57.926Z,101997.11
2022-11-26T21:45:30.904Z,101999.55
2022-11-26T21:48:05.021Z,101996.85
2022-11-26T21:50:38.061Z,101995.55
2022-11-26T21:53:11.729Z,101992.88
2022-11-26T21:55:45.364Z,101993.36
2022-11-26T21:58:17.976Z,101990.92
2022-11-26T22:00:51.074Z,101987.58
2022-11-26T22:03:23.714Z,101986.83
2022-11-26T22:05:59.257Z,101987.79
2022-11-26T22:08:32.303Z,101988.98
2022-11-26T22:11:11.145Z,101991.22
2022-11-26T22:13:44.348Z,101987.73
2022-11-26T22:16:18.837Z,101986.04
2022-11-26T22:18:52.339Z,101985.50
2022-11-26T22:21:29.285Z,101987.29
2022-11-26T22:24:03.447Z,101986.83
2022-11-26T22:26:37.314Z,101983.36
2022-11-26T22:29:12.169Z,101984.88
2022-11-26T22:31:45.326Z,101986.89
2022-11-26T22:34:22.153Z,101985.99
2022-11-26T22:36:55.028Z,101980.08
2022-11-26T22:39:27.599Z,101983.82
2022-11-26T22:42:02.156Z,101979.40
2022-11-26T22:44:37.278Z,101977.11
2022-11-26T22:47:12.368Z,101980.42
2022-11-26T22:49:44.997Z,101974.88
2022-11-26T22:52:17.680Z,101976.52
2022-11-26T22:54:50.346Z,101971.20
2022-11-26T22:57:25.510Z,101971.23
2022-11-26T22:59:58.487Z,101967.54
2022-11-26T23:02:31.236Z,101967.71
2022-11-26T23:05:03.921Z,101966.58
2022-11-26T23:07:37.898Z,101964.06
2022-11-26T23:10:12.265Z,101960.79
2022-11-26T23:12:44.846Z,101961.48
2022-11-26T23:15:17.480Z,101959.74
2022-11-26T23:17:50.108Z,101959.50
2022-11-26T23:20:22.964Z,101958.59
2022-11-26T23:22:56.140Z,101962.27
2022-11-26T23:25:28.530Z,101959.02
2022-11-26T23:28:01.250Z,101959.20
2022-11-26T23:30:34.144Z,101961.44
2022-11-26T23:33:06.743Z,101960.30
2022-11-26T23:35:39.429Z,101960.36
2022-11-26T23:38:11.913Z,101961.83
2022-11-26T23:40:44.438Z,101966.11
2022-11-26T23:43:17.462Z,101967.14
2022-11-26T23:45:51.379Z,101964.82
2022-11-26T23:48:24.125Z,101959.85
2022-11-26T23:50:56.692Z,101965.49
2022-11-26T23:53:29.950Z,101962.95
2022-11-26T23:56:08.192Z,101967.13
2022-11-26T23:58:41.221Z,101968.39
